Time;durP1;ratioP1;P1;durP2;ratioP2;P2;SDS_P1;SDS_P2;PMS_P1;PMS_P2;Temp;Humidity;BMP_temperature;BMP_pressure;BME280_temperature;BME280_humidity;BME280_pressure;Samples;Min_cycle;Max_cycle;Signal;HPM_P1;HPM_P2
2021/07/24 00:05:27;;;;;;;1999.90;999.90;;;;;;;19.27;71.01;101020.50;15709997;28;20041;-59
2021/07/24 00:13:01;;;;;;;1999.90;999.90;;;;;;;19.24;71.39;100997.84;15700736;28;20048;-59
2021/07/24 00:20:33;;;;;;;1999.90;999.90;;;;;;;19.07;71.82;100998.44;15705343;28;20063;-59
2021/07/24 00:28:07;;;;;;;1999.90;999.90;;;;;;;19.02;71.91;100985.44;15677113;28;20485;-57
2021/07/24 00:35:39;;;;;;;1999.90;999.90;;;;;;;19.04;71.96;100991.53;15683827;28;20063;-57
2021/07/24 00:43:14;;;;;;;1999.90;999.90;;;;;;;18.91;72.05;100993.78;15691808;28;20060;-60
2021/07/24 00:50:48;;;;;;;1999.90;999.90;;;;;;;18.76;72.70;100980.66;15695353;28;20080;-60
2021/07/24 00:58:26;;;;;;;1999.90;999.90;;;;;;;18.70;73.09;100971.69;15685934;28;20045;-60
2021/07/24 01:06:00;;;;;;;1999.90;999.90;;;;;;;18.72;72.93;100972.13;15691474;28;20339;-59
2021/07/24 01:13:35;;;;;;;1999.90;999.90;;;;;;;18.77;72.77;100968.16;15680414;28;20064;-60
2021/07/24 01:21:09;;;;;;;1999.90;999.90;;;;;;;18.56;72.80;100965.81;15700905;28;20041;-60
2021/07/24 01:28:50;;;;;;;1999.90;999.90;;;;;;;18.47;72.96;100965.28;15687243;28;20040;-58
2021/07/24 01:36:22;;;;;;;1999.90;999.90;;;;;;;18.47;72.99;100962.44;15696199;28;20505;-58
2021/07/24 01:43:57;;;;;;;1999.90;999.90;;;;;;;18.42;72.98;100960.75;15704506;28;20049;-59
2021/07/24 01:59:35;;;;;;;1999.90;999.90;;;;;;;18.36;73.41;100956.63;15700007;28;20127;-58
2021/07/24 02:07:10;;;;;;;1999.90;999.90;;;;;;;18.22;73.45;100950.75;15654481;28;20453;-59
2021/07/24 02:14:57;;;;;;;1999.90;999.90;;;;;;;18.12;74.12;100945.75;15693357;28;20045;-59
2021/07/24 02:22:34;;;;;;;1999.90;999.90;;;;;;;18.10;74.03;100948.94;15711187;28;20123;-60
2021/07/24 02:30:09;;;;;;;1999.90;999.90;;;;;;;18.21;73.51;100945.47;15691817;28;20037;-57
2021/07/24 02:37:42;;;;;;;1999.90;999.90;;;;;;;18.13;73.54;100953.03;15684956;28;20076;-58
2021/07/24 02:45:16;;;;;;;1999.90;999.90;;;;;;;18.15;73.51;100936.53;15697836;28;20033;-62
2021/07/24 02:52:49;;;;;;;1999.90;999.90;;;;;;;17.99;73.79;100927.38;15697177;28;20040;-60
2021/07/24 03:00:22;;;;;;;1999.90;999.90;;;;;;;18.07;73.76;100921.47;15697874;28;20049;-59
2021/07/24 03:07:55;;;;;;;1999.90;999.90;;;;;;;17.95;74.58;100927.34;15699271;28;20444;-60
2021/07/24 03:15:28;;;;;;;1999.90;999.90;;;;;;;18.05;74.32;100915.41;15691627;28;20049;-60
2021/07/24 03:23:01;;;;;;;1999.90;999.90;;;;;;;18.06;73.84;100913.41;15663592;28;20070;-60
2021/07/24 03:30:34;;;;;;;1999.90;999.90;;;;;;;18.05;74.53;100895.63;15685036;28;20496;-60
2021/07/24 03:38:07;;;;;;;1999.90;999.90;;;;;;;17.95;75.28;100898.28;15678914;28;20044;-60
2021/07/24 03:45:40;;;;;;;1999.90;999.90;;;;;;;18.09;75.17;100890.03;15722787;28;20464;-59
2021/07/24 03:53:13;;;;;;;1999.90;999.90;;;;;;;18.16;74.85;100901.44;15697421;28;20428;-61
2021/07/24 04:00:48;;;;;;;1999.90;999.90;;;;;;;18.19;75.07;100897.84;15697283;28;20049;-60
2021/07/24 04:08:22;;;;;;;1999.90;999.90;;;;;;;18.33;75.13;100905.72;15687403;28;20045;-60
2021/07/24 04:15:55;;;;;;;;;;;;;;;18.54;74.33;100913.69;15671429;28;20091;-60
2021/07/24 04:23:27;;;;;;;1999.90;999.90;;;;;;;18.57;74.27;100902.44;15639639;28;19994;-60
2021/07/24 04:31:03;;;;;;;1999.90;999.90;;;;;;;18.82;74.23;100905.63;15603839;28;20052;-60
2021/07/24 04:38:36;;;;;;;1999.90;999.90;;;;;;;18.89;73.74;100907.72;15693211;28;20045;-59
2021/07/24 04:46:10;;;;;;;1999.90;999.90;;;;;;;19.13;73.52;100912.06;15704644;28;20056;-60
2021/07/24 04:53:44;;;;;;;1999.90;999.90;;;;;;;19.41;72.23;100920.84;15695513;28;20111;-60
2021/07/24 05:01:37;;;;;;;1999.90;999.90;;;;;;;19.70;71.79;100924.00;15730329;28;20127;-59
2021/07/24 05:09:09;;;;;;;1999.90;999.90;;;;;;;19.86;70.85;100927.38;15677436;28;20056;-61
2021/07/24 05:16:43;;;;;;;1999.90;999.90;;;;;;;20.36;70.29;100931.41;15728668;28;20473;-60
2021/07/24 05:24:16;;;;;;;1999.90;999.90;;;;;;;20.56;69.52;100936.81;15653076;28;20041;-61
2021/07/24 05:31:50;;;;;;;1999.90;999.90;;;;;;;21.31;67.20;100949.34;15680659;28;20446;-60
2021/07/24 05:39:23;;;;;;;1999.90;999.90;;;;;;;21.41;64.75;100942.88;15717636;28;20048;-60
2021/07/24 05:46:58;;;;;;;1999.90;999.90;;;;;;;22.11;66.01;100946.25;15697829;28;20452;-61
2021/07/24 05:54:30;;;;;;;1999.90;999.90;;;;;;;22.43;63.11;100937.66;15709636;28;20037;-61
2021/07/24 06:02:07;;;;;;;1999.90;999.90;;;;;;;22.89;61.17;100946.09;15661552;28;20060;-61
2021/07/24 06:09:40;;;;;;;1999.90;999.90;;;;;;;23.33;58.93;100950.38;15690430;28;20045;-60
2021/07/24 06:17:13;;;;;;;;;;;;;;;23.53;59.26;100937.22;15684840;28;20095;-61
2021/07/24 06:24:45;;;;;;;1999.90;999.90;;;;;;;24.16;57.55;100938.00;15660913;28;19921;-61
2021/07/24 06:32:19;;;;;;;1999.90;999.90;;;;;;;24.60;56.41;100929.88;15710263;28;20048;-60
2021/07/24 06:39:51;;;;;;;1999.90;999.90;;;;;;;24.67;54.75;100922.03;15667124;28;20299;-62
2021/07/24 06:47:25;;;;;;;1999.90;999.90;;;;;;;25.23;53.61;100921.78;15695053;28;20322;-61
2021/07/24 06:54:57;;;;;;;1999.90;999.90;;;;;;;25.38;53.00;100903.19;15708171;28;20072;-60
2021/07/24 07:02:31;;;;;;;1999.90;999.90;;;;;;;25.94;52.36;100906.41;15692695;28;20118;-61
2021/07/24 07:10:04;;;;;;;1999.90;999.90;;;;;;;25.93;51.38;100901.13;15635334;28;20049;-61
2021/07/24 07:17:37;;;;;;;1999.90;999.90;;;;;;;26.28;49.42;100894.81;15678681;28;20033;-60
2021/07/24 07:25:14;;;;;;;1999.90;999.90;;;;;;;26.78;48.28;100888.09;15679303;28;20045;-60
2021/07/24 07:32:48;;;;;;;1999.90;999.90;;;;;;;27.13;47.62;100883.72;15690854;28;20046;-61
2021/07/24 07:40:22;;;;;;;1999.90;999.90;;;;;;;27.39;45.98;100884.75;15695944;28;20037;-64
2021/07/24 07:47:55;;;;;;;1999.90;999.90;;;;;;;28.00;44.75;100877.53;15706613;28;20048;-63
2021/07/24 07:55:27;;;;;;;1999.90;999.90;;;;;;;28.66;43.71;100879.88;15621166;28;20053;-62
2021/07/24 08:11:52;;;;;;;1999.90;999.90;;;;;;;29.34;43.92;100863.47;15617744;28;19986;-63
2021/07/24 08:19:26;;;;;;;1999.90;999.90;;;;;;;29.68;39.24;100865.66;15612533;28;20048;-64
2021/07/24 08:45:35;;;;;;;1999.90;999.90;;;;;;;29.90;39.91;100857.09;15726286;22;20121;-64
2021/07/24 08:53:09;;;;;;;1999.90;999.90;;;;;;;31.36;37.15;100851.69;15756894;28;20159;-66
2021/07/24 09:00:45;;;;;;;1999.90;999.90;;;;;;;31.50;37.34;100833.84;15742451;28;20036;-66
2021/07/24 09:08:19;;;;;;;1999.90;999.90;;;;;;;31.91;36.07;100833.81;15805801;28;20044;-63
2021/07/24 09:15:54;;;;;;;1999.90;999.90;;;;;;;31.77;35.20;100838.09;15813562;28;20047;-66
2021/07/24 09:23:32;;;;;;;1999.90;999.90;;;;;;;31.72;34.51;100819.31;15763041;28;20049;-66
2021/07/24 09:31:21;;;;;;;1999.90;999.90;;;;;;;31.96;33.81;100828.19;15749426;28;20047;-65
2021/07/24 09:39:07;;;;;;;1999.90;999.90;;;;;;;32.25;34.11;100800.94;15749297;28;20120;-67
2021/07/24 09:46:40;;;;;;;1999.90;999.90;;;;;;;33.02;32.91;100807.28;15748782;28;20044;-65
2021/07/24 09:54:27;;;;;;;1999.90;999.90;;;;;;;33.10;32.19;100816.41;15753749;28;20052;-65
2021/07/24 10:02:04;;;;;;;1999.90;999.90;;;;;;;32.67;31.30;100804.78;15792066;28;20093;-65
2021/07/24 10:09:37;;;;;;;1999.90;999.90;;;;;;;32.68;32.61;100809.25;15809321;28;20047;-64
2021/07/24 10:17:13;;;;;;;1999.90;999.90;;;;;;;34.59;31.91;100813.69;15810148;28;20068;-66
2021/07/24 10:24:45;;;;;;;1999.90;999.90;;;;;;;34.04;30.54;100814.16;15774282;28;20131;-65
2021/07/24 10:32:26;;;;;;;1999.90;999.90;;;;;;;34.65;30.11;100800.94;15809686;28;20082;-65
2021/07/24 10:40:32;;;;;;;1999.90;999.90;;;;;;;34.94;30.86;100796.47;15809193;28;20093;-66
2021/07/24 10:48:23;;;;;;;1999.90;999.90;;;;;;;34.53;30.45;100790.44;15807571;28;20492;-65
2021/07/24 10:55:56;;;;;;;;;;;;;;;35.14;29.44;100787.03;15753269;28;20049;-65
2021/07/24 11:03:46;;;;;;;1999.90;999.90;;;;;;;35.32;29.17;100778.06;15744491;28;19920;-65
2021/07/24 11:11:35;;;;;;;;;;;;;;;35.87;28.31;100762.84;15744161;28;20051;-66
2021/07/24 11:19:18;;;;;;;1999.90;999.90;;;;;;;36.75;28.30;100752.69;15725642;28;19920;-66
2021/07/24 11:26:57;;;;;;;1999.90;999.90;;;;;;;35.98;27.49;100754.25;15724835;28;20098;-65
2021/07/24 11:34:32;;;;;;;1999.90;999.90;;;;;;;36.70;26.86;100757.16;15742261;28;20052;-64
2021/07/24 11:42:20;;;;;;;1999.90;999.90;;;;;;;37.04;27.85;100753.75;15725169;28;20051;-66
2021/07/24 11:49:54;;;;;;;1999.90;999.90;;;;;;;36.51;26.98;100746.41;15742210;28;20043;-66
2021/07/24 11:57:28;;;;;;;1999.90;999.90;;;;;;;36.20;28.34;100747.09;15773718;28;20032;-65
2021/07/24 12:05:01;;;;;;;1999.90;999.90;;;;;;;37.11;26.58;100736.63;15785978;28;20520;-66
2021/07/24 12:12:33;;;;;;;1999.90;999.90;;;;;;;36.29;29.07;100749.84;15803623;28;20036;-66
2021/07/24 12:20:13;;;;;;;1999.90;999.90;;;;;;;37.41;25.79;100727.56;15802661;28;20093;-66
2021/07/24 12:27:48;;;;;;;1999.90;999.90;;;;;;;37.51;26.02;100726.03;15784592;28;20071;-65
2021/07/24 12:35:25;;;;;;;1999.90;999.90;;;;;;;39.11;24.04;100731.22;15785330;28;20044;-65
2021/07/24 12:43:09;;;;;;;1999.90;999.90;;;;;;;35.55;28.25;100712.53;15808310;28;20067;-65
2021/07/24 12:50:42;;;;;;;1999.90;999.90;;;;;;;37.85;25.15;100718.28;15815073;28;20066;-66
2021/07/24 12:58:15;;;;;;;1999.90;999.90;;;;;;;37.89;25.52;100709.28;15740268;28;20370;-65
2021/07/24 13:05:50;;;;;;;1999.90;999.90;;;;;;;36.01;27.11;100700.16;15751113;28;20044;-65
2021/07/24 13:13:22;;;;;;;1999.90;999.90;;;;;;;39.13;25.06;100696.47;15750235;28;20056;-65
2021/07/24 13:20:56;;;;;;;1999.90;999.90;;;;;;;33.24;31.57;100689.28;15732329;28;20049;-66
2021/07/24 13:28:28;;;;;;;1999.90;999.90;;;;;;;32.60;32.71;100686.69;15749867;28;20048;-65
2021/07/24 13:36:02;;;;;;;1999.90;999.90;;;;;;;33.14;32.00;100687.78;15732305;28;20055;-65
2021/07/24 13:43:34;;;;;;;1999.90;999.90;;;;;;;33.06;33.40;100677.84;15749167;28;20082;-66
2021/07/24 13:51:07;;;;;;;1999.90;999.90;;;;;;;33.69;31.38;100677.94;15730539;28;20413;-66
2021/07/24 13:58:44;;;;;;;1999.90;999.90;;;;;;;34.04;30.47;100673.13;15806814;28;20051;-65
2021/07/24 14:06:17;;;;;;;1999.90;999.90;;;;;;;33.72;34.00;100662.47;15810505;28;20040;-66
2021/07/24 14:13:50;;;;;;;1999.90;999.90;;;;;;;32.63;32.89;100656.84;15791909;28;20047;-66
2021/07/24 14:21:25;;;;;;;1999.90;999.90;;;;;;;32.84;32.79;100646.34;15791955;28;20047;-66
2021/07/24 14:28:57;;;;;;;1999.90;999.90;;;;;;;33.77;34.61;100636.56;15809100;28;20047;-66
2021/07/24 14:36:30;;;;;;;1999.90;999.90;;;;;;;32.56;31.44;100644.84;15790686;28;20145;-65
2021/07/24 14:44:03;;;;;;;1999.90;999.90;;;;;;;32.30;32.62;100635.78;15808710;28;20047;-66
2021/07/24 14:51:36;;;;;;;1999.90;999.90;;;;;;;32.33;32.43;100629.84;15807711;28;20036;-66
2021/07/24 14:59:09;;;;;;;1999.90;999.90;;;;;;;32.86;30.84;100631.41;15745108;28;20044;-65
2021/07/24 15:06:42;;;;;;;1999.90;999.90;;;;;;;32.57;31.19;100629.09;15744167;28;20083;-65
2021/07/24 15:14:14;;;;;;;1999.90;999.90;;;;;;;32.39;32.63;100624.19;15726958;28;20501;-66
2021/07/24 15:21:48;;;;;;;1999.90;999.90;;;;;;;32.11;33.30;100620.59;15709707;28;20049;-65
2021/07/24 15:29:20;;;;;;;1999.90;999.90;;;;;;;32.06;33.32;100603.91;15725509;28;20404;-65
2021/07/24 15:36:54;;;;;;;1999.90;999.90;;;;;;;32.23;33.56;100598.56;15725026;28;20463;-65
2021/07/24 15:44:27;;;;;;;1999.90;999.90;;;;;;;32.49;33.59;100591.09;15742763;28;20051;-65
2021/07/24 15:52:00;;;;;;;1999.90;999.90;;;;;;;31.93;32.98;100574.44;15727614;28;20036;-63
2021/07/24 15:59:32;;;;;;;1999.90;999.90;;;;;;;31.88;32.86;100573.81;15805259;28;20052;-64
2021/07/24 16:07:06;;;;;;;1999.90;999.90;;;;;;;31.58;34.08;100564.06;15787766;28;20089;-64
2021/07/24 16:14:39;;;;;;;1999.90;999.90;;;;;;;31.47;33.32;100566.66;15787391;28;20090;-65
2021/07/24 16:22:13;;;;;;;1999.90;999.90;;;;;;;31.58;34.56;100552.53;15805849;28;20454;-65
2021/07/24 16:29:45;;;;;;;1999.90;999.90;;;;;;;31.70;33.81;100547.06;15787710;28;20063;-66
2021/07/24 16:37:19;;;;;;;1999.90;999.90;;;;;;;31.27;34.55;100551.94;15788644;28;20044;-65
2021/07/24 16:44:55;;;;;;;1999.90;999.90;;;;;;;31.33;35.71;100546.31;15806675;28;20052;-66
2021/07/24 16:52:30;;;;;;;1999.90;999.90;;;;;;;31.33;36.38;100537.66;15781007;28;20043;-66
2021/07/24 17:00:03;;;;;;;1999.90;999.90;;;;;;;31.32;35.91;100516.69;15743025;28;20057;-65
2021/07/24 17:07:40;;;;;;;1999.90;999.90;;;;;;;31.35;35.25;100501.28;15723372;28;20098;-64
2021/07/24 17:15:12;;;;;;;1999.90;999.90;;;;;;;31.20;37.08;100483.06;15741428;28;20045;-65
2021/07/24 17:22:45;;;;;;;1999.90;999.90;;;;;;;31.29;35.99;100485.94;15723609;28;20105;-65
2021/07/24 17:30:17;;;;;;;1999.90;999.90;;;;;;;31.28;36.68;100490.91;15727476;28;20075;-66
2021/07/24 17:37:51;;;;;;;1999.90;999.90;;;;;;;30.84;36.94;100478.88;15749790;28;20064;-66
2021/07/24 17:45:24;;;;;;;1999.90;999.90;;;;;;;30.80;37.38;100484.00;15750173;28;20060;-65
2021/07/24 17:52:59;;;;;;;1999.90;999.90;;;;;;;30.86;36.86;100481.28;15762818;28;20047;-66
2021/07/24 18:00:32;;;;;;;1999.90;999.90;;;;;;;30.37;38.30;100473.50;15814341;28;20044;-66
2021/07/24 18:08:06;;;;;;;1999.90;999.90;;;;;;;30.45;37.93;100486.31;15812182;28;20105;-66
2021/07/24 18:15:38;;;;;;;1999.90;999.90;;;;;;;30.23;38.47;100489.28;15811996;28;20485;-66
2021/07/24 18:23:11;;;;;;;1999.90;999.90;;;;;;;30.14;38.34;100503.66;15812432;28;20097;-66
2021/07/24 18:30:44;;;;;;;1999.90;999.90;;;;;;;29.93;39.27;100487.22;15795731;28;20040;-66
2021/07/24 18:38:18;;;;;;;1999.90;999.90;;;;;;;29.63;39.25;100489.63;15814305;28;20036;-66
2021/07/24 18:45:52;;;;;;;1999.90;999.90;;;;;;;29.24;40.46;100486.13;15813471;28;20051;-66
2021/07/24 18:53:25;;;;;;;1999.90;999.90;;;;;;;29.09;40.75;100499.44;15796315;28;20543;-65
2021/07/24 19:00:57;;;;;;;1999.90;999.90;;;;;;;29.01;40.56;100498.88;15748420;28;20045;-65
2021/07/24 19:08:31;;;;;;;1999.90;999.90;;;;;;;28.78;41.34;100512.84;15745788;28;20036;-65
2021/07/24 19:16:03;;;;;;;1999.90;999.90;;;;;;;28.70;41.56;100515.97;15745901;28;20192;-65
2021/07/24 19:23:37;;;;;;;1999.90;999.90;;;;;;;28.46;42.03;100515.56;15726487;28;20044;-65
2021/07/24 19:31:09;;;;;;;1999.90;999.90;;;;;;;28.44;41.96;100508.66;15741769;28;20044;-65
2021/07/24 19:38:44;;;;;;;1999.90;999.90;;;;;;;28.42;41.95;100520.59;15742743;28;20091;-65
2021/07/24 19:46:17;;;;;;;1999.90;999.90;;;;;;;28.03;42.78;100503.81;15742139;28;20286;-66
2021/07/24 19:53:50;;;;;;;1999.90;999.90;;;;;;;27.93;42.79;100525.88;15745067;28;20428;-65
2021/07/24 20:01:23;;;;;;;1999.90;999.90;;;;;;;27.67;43.64;100529.94;15790878;28;20592;-64
2021/07/24 20:08:56;;;;;;;1999.90;999.90;;;;;;;27.79;43.70;100520.56;15807558;28;20565;-65
2021/07/24 20:16:29;;;;;;;1999.90;999.90;;;;;;;27.77;43.79;100512.41;15807507;28;20101;-64
2021/07/24 20:24:02;;;;;;;;;;;;;;;27.80;44.06;100514.38;15789427;28;20553;-65
2021/07/24 20:31:34;;;;;;;1999.90;999.90;;;;;;;27.50;44.50;100509.91;15772225;28;19924;-65
2021/07/24 20:39:08;;;;;;;;;;;;;;;27.34;44.76;100507.13;15788456;28;20081;-65
2021/07/24 20:46:40;;;;;;;1999.90;999.90;;;;;;;27.12;45.24;100506.16;15805267;28;20306;-65
2021/07/24 20:54:14;;;;;;;1999.90;999.90;;;;;;;27.04;45.48;100508.41;15779524;28;20068;-65
2021/07/24 21:01:46;;;;;;;1999.90;999.90;;;;;;;26.96;45.41;100513.47;15741211;28;20052;-65
2021/07/24 21:09:19;;;;;;;1999.90;999.90;;;;;;;26.69;46.00;100508.09;15750358;28;20032;-65
2021/07/24 21:16:51;;;;;;;1999.90;999.90;;;;;;;26.76;46.14;100518.53;15732435;28;20136;-65
2021/07/24 21:24:26;;;;;;;1999.90;999.90;;;;;;;26.66;45.77;100526.13;15733700;28;20094;-65
2021/07/24 21:31:58;;;;;;;1999.90;999.90;;;;;;;26.50;45.75;100531.88;15758263;28;20304;-65
2021/07/24 21:39:34;;;;;;;1999.90;999.90;;;;;;;26.59;45.96;100539.84;15731970;28;20068;-65
2021/07/24 21:47:06;;;;;;;1999.90;999.90;;;;;;;26.22;46.29;100556.22;15730301;28;20429;-65
2021/07/24 21:54:40;;;;;;;1999.90;999.90;;;;;;;26.27;45.99;100563.47;15774009;28;20036;-65
2021/07/24 22:02:14;;;;;;;1999.90;999.90;;;;;;;26.02;46.72;100573.41;15810453;28;20044;-65
2021/07/24 22:09:47;;;;;;;1999.90;999.90;;;;;;;26.08;45.91;100573.72;15810605;28;20040;-65
2021/07/24 22:17:20;;;;;;;1999.90;999.90;;;;;;;25.78;46.20;100589.06;15808721;28;20464;-65
2021/07/24 22:24:53;;;;;;;1999.90;999.90;;;;;;;25.94;46.00;100585.44;15809224;28;20040;-65
2021/07/24 22:32:25;;;;;;;1999.90;999.90;;;;;;;25.82;46.09;100570.59;15790628;28;20072;-65
2021/07/24 22:39:59;;;;;;;1999.90;999.90;;;;;;;25.82;45.90;100573.44;15808580;28;20093;-64
2021/07/24 22:47:32;;;;;;;1999.90;999.90;;;;;;;25.78;45.90;100569.88;15809086;28;20052;-64
2021/07/24 22:55:07;;;;;;;1999.90;999.90;;;;;;;25.91;45.62;100570.00;15808793;28;20040;-64
2021/07/24 23:02:39;;;;;;;1999.90;999.90;;;;;;;25.71;45.99;100561.44;15807593;28;20048;-65
2021/07/24 23:10:13;;;;;;;1999.90;999.90;;;;;;;25.79;46.05;100562.09;15796438;28;20036;-65
2021/07/24 23:17:47;;;;;;;1999.90;999.90;;;;;;;25.81;45.45;100539.59;15768330;28;20105;-65
2021/07/24 23:25:20;;;;;;;1999.90;999.90;;;;;;;25.77;45.62;100536.81;15752787;28;20524;-65
2021/07/24 23:32:53;;;;;;;1999.90;999.90;;;;;;;25.51;46.04;100532.03;15768076;28;20037;-64
2021/07/24 23:40:26;;;;;;;1999.90;999.90;;;;;;;25.50;46.11;100521.88;15742238;28;20052;-65
2021/07/24 23:47:58;;;;;;;1999.90;999.90;;;;;;;25.53;46.32;100518.13;15727138;28;20044;-64
2021/07/24 23:55:32;;;;;;;1999.90;999.90;;;;;;;25.07;46.84;100505.63;15805224;28;20044;-64
